Arlington Heights, Ohio
Current Conditions -  °F | °C
As of 11:53 PM on Friday 28 Nov 2014 (Local Time) from KHAO Reporting Station
Clear Clear  
Wind Chill: 34°   Ceiling: Unl
Heat Index: 34°   Visibility: 10mi
Dew Point: 18°   Wind: 3mph
Humidity: 52%   Direction: 140°SE
Pressure: 30.1"   Gusts: NA
Location:  39.236°N, 84.4599°W
Report Text: KHAO 290453Z AUTO 14003KT 10SM CLR 01/M08 A3010 RMK AO2 SLP198 T00111078 400281044
Loading
Personal Weather Stations






























Interactive Weather Map New forecast layout! Learn more

10-Day Weather Forecast

Advertisements
Track Severe Weather on mobile